createdAt,value
2022-07-25T00:01:49.129Z,100.00
2022-07-25T00:04:18.128Z,100.00
2022-07-25T00:06:46.207Z,100.00
2022-07-25T00:09:13.777Z,100.00
2022-07-25T00:11:40.675Z,100.00
2022-07-25T00:14:07.947Z,100.00
2022-07-25T00:16:35.159Z,100.00
2022-07-25T00:19:02.144Z,100.00
2022-07-25T00:21:28.986Z,100.00
2022-07-25T00:23:55.781Z,100.00
2022-07-25T00:26:22.555Z,100.00
2022-07-25T00:28:49.489Z,100.00
2022-07-25T00:31:16.406Z,100.00
2022-07-25T00:33:43.340Z,100.00
2022-07-25T00:36:10.481Z,100.00
2022-07-25T00:38:37.389Z,100.00
2022-07-25T00:41:05.063Z,100.00
2022-07-25T00:43:32.249Z,100.00
2022-07-25T00:45:59.606Z,100.00
2022-07-25T00:48:28.510Z,100.00
2022-07-25T00:50:56.375Z,100.00
2022-07-25T00:53:24.043Z,100.00
2022-07-25T00:55:52.185Z,100.00
2022-07-25T00:58:19.105Z,100.00
2022-07-25T01:00:46.979Z,100.00
2022-07-25T01:03:14.450Z,100.00
2022-07-25T01:05:41.685Z,100.00
2022-07-25T01:08:09.209Z,100.00
2022-07-25T01:10:37.231Z,100.00
2022-07-25T01:13:04.265Z,100.00
2022-07-25T01:15:31.584Z,100.00
2022-07-25T01:17:58.445Z,100.00
2022-07-25T01:20:28.704Z,100.00
2022-07-25T01:22:56.490Z,100.00
2022-07-25T01:25:25.183Z,100.00
2022-07-25T01:27:55.720Z,100.00
2022-07-25T01:30:24.651Z,100.00
2022-07-25T01:32:52.005Z,100.00
2022-07-25T01:35:19.682Z,100.00
2022-07-25T01:37:49.231Z,100.00
2022-07-25T01:40:16.121Z,100.00
2022-07-25T01:42:43.615Z,100.00
2022-07-25T01:45:11.723Z,100.00
2022-07-25T01:47:38.586Z,100.00
2022-07-25T01:50:06.287Z,100.00
2022-07-25T01:52:33.384Z,100.00
2022-07-25T01:55:00.228Z,100.00
2022-07-25T01:57:31.058Z,100.00
2022-07-25T01:59:59.036Z,100.00
2022-07-25T02:02:25.869Z,100.00
2022-07-25T02:04:52.801Z,100.00
2022-07-25T02:07:19.785Z,100.00
2022-07-25T02:09:46.587Z,100.00
2022-07-25T02:12:13.397Z,100.00
2022-07-25T02:14:40.425Z,100.00
2022-07-25T02:17:07.514Z,100.00
2022-07-25T02:19:34.494Z,100.00
2022-07-25T02:22:01.554Z,100.00
2022-07-25T02:24:28.353Z,100.00
2022-07-25T02:26:55.137Z,100.00
2022-07-25T02:29:22.196Z,100.00
2022-07-25T02:31:51.411Z,100.00
2022-07-25T02:34:18.718Z,100.00
2022-07-25T02:36:45.642Z,100.00
2022-07-25T02:39:13.450Z,100.00
2022-07-25T02:41:40.321Z,100.00
2022-07-25T02:44:07.494Z,100.00
2022-07-25T02:46:35.206Z,100.00
2022-07-25T02:49:02.937Z,100.00
2022-07-25T02:51:29.797Z,100.00
2022-07-25T02:53:58.451Z,100.00
2022-07-25T02:56:26.964Z,100.00
2022-07-25T02:58:57.364Z,100.00
2022-07-25T03:01:24.639Z,100.00
2022-07-25T03:03:51.662Z,100.00
2022-07-25T03:06:18.509Z,100.00
2022-07-25T03:08:45.298Z,100.00
2022-07-25T03:11:13.208Z,100.00
2022-07-25T03:13:40.072Z,100.00
2022-07-25T03:16:07.521Z,100.00
2022-07-25T03:18:34.321Z,100.00
2022-07-25T03:21:01.531Z,100.00
2022-07-25T03:23:29.460Z,100.00
2022-07-25T03:25:56.647Z,100.00
2022-07-25T03:28:24.219Z,100.00
2022-07-25T03:30:52.190Z,100.00
2022-07-25T03:33:19.034Z,100.00
2022-07-25T03:35:46.370Z,100.00
2022-07-25T03:38:13.209Z,100.00
2022-07-25T03:40:40.121Z,100.00
2022-07-25T03:43:07.003Z,100.00
2022-07-25T03:45:33.987Z,100.00
2022-07-25T03:48:01.593Z,100.00
2022-07-25T03:50:28.484Z,100.00
2022-07-25T03:52:55.406Z,100.00
2022-07-25T03:55:22.363Z,100.00
2022-07-25T03:57:49.199Z,100.00
2022-07-25T04:00:17.333Z,100.00
2022-07-25T04:02:44.286Z,100.00
2022-07-25T04:05:11.232Z,100.00
2022-07-25T04:07:38.441Z,100.00
2022-07-25T04:10:07.119Z,100.00
2022-07-25T04:12:35.226Z,100.00
2022-07-25T04:15:02.157Z,100.00
2022-07-25T04:17:28.983Z,100.00
2022-07-25T04:19:55.806Z,100.00
2022-07-25T04:22:23.601Z,100.00
2022-07-25T04:24:50.423Z,100.00
2022-07-25T04:27:17.329Z,100.00
2022-07-25T04:29:44.303Z,100.00
2022-07-25T04:32:11.158Z,100.00
2022-07-25T04:34:38.061Z,100.00
2022-07-25T04:37:04.866Z,100.00
2022-07-25T04:39:31.820Z,100.00
2022-07-25T04:41:58.686Z,100.00
2022-07-25T04:44:25.691Z,100.00
2022-07-25T04:46:52.635Z,100.00
2022-07-25T04:49:19.542Z,100.00
2022-07-25T04:51:46.508Z,100.00
2022-07-25T04:54:13.398Z,100.00
2022-07-25T04:56:40.223Z,100.00
2022-07-25T04:59:07.323Z,100.00
2022-07-25T05:01:35.126Z,100.00
2022-07-25T05:04:02.593Z,100.00
2022-07-25T05:06:29.679Z,100.00
2022-07-25T05:08:56.645Z,100.00
2022-07-25T05:11:23.746Z,100.00
2022-07-25T05:13:51.444Z,100.00
2022-07-25T05:16:18.379Z,100.00
2022-07-25T05:18:45.272Z,100.00
2022-07-25T05:21:12.745Z,100.00
2022-07-25T05:23:39.680Z,100.00
2022-07-25T05:26:06.602Z,100.00
2022-07-25T05:28:33.629Z,100.00
2022-07-25T05:31:00.877Z,100.00
2022-07-25T05:33:28.026Z,100.00
2022-07-25T05:35:54.790Z,100.00
2022-07-25T05:38:21.696Z,100.00
2022-07-25T05:40:51.600Z,100.00
2022-07-25T05:43:18.805Z,100.00
2022-07-25T05:45:47.031Z,100.00
2022-07-25T05:48:14.682Z,100.00
2022-07-25T05:50:41.678Z,100.00
2022-07-25T05:53:08.828Z,100.00
2022-07-25T05:55:40.089Z,99.98
2022-07-25T05:58:09.004Z,99.60
2022-07-25T06:00:37.040Z,99.77
2022-07-25T06:03:04.210Z,97.04
2022-07-25T06:05:31.520Z,96.61
2022-07-25T06:07:59.031Z,95.81
2022-07-25T06:10:25.883Z,95.38
2022-07-25T06:12:52.712Z,95.41
2022-07-25T06:15:22.998Z,94.50
2022-07-25T06:17:54.467Z,92.92
2022-07-25T06:20:21.815Z,93.32
2022-07-25T06:22:48.929Z,92.28
2022-07-25T06:25:16.056Z,91.18
2022-07-25T06:27:43.113Z,90.57
2022-07-25T06:30:19.744Z,87.64
2022-07-25T06:32:50.825Z,87.74
2022-07-25T06:35:17.840Z,84.68
2022-07-25T06:37:45.223Z,81.73
2022-07-25T06:40:12.358Z,79.77
2022-07-25T06:42:40.968Z,76.83
2022-07-25T06:45:09.306Z,77.17
2022-07-25T06:47:37.335Z,75.58
2022-07-25T06:50:07.670Z,75.30
2022-07-25T06:52:34.503Z,72.66
2022-07-25T06:55:02.811Z,74.21
2022-07-25T06:57:29.674Z,74.10
2022-07-25T06:59:56.916Z,72.92
2022-07-25T07:02:23.783Z,70.66
2022-07-25T07:04:50.586Z,66.35
2022-07-25T07:07:18.149Z,67.56
2022-07-25T07:09:45.074Z,68.55
2022-07-25T07:12:11.861Z,68.14
2022-07-25T07:14:39.807Z,65.02
2022-07-25T07:17:06.756Z,65.26
2022-07-25T07:19:33.733Z,66.79
2022-07-25T07:22:00.601Z,65.65
2022-07-25T07:24:27.621Z,63.12
2022-07-25T07:26:54.581Z,62.38
2022-07-25T07:29:21.424Z,62.26
2022-07-25T07:31:48.366Z,63.25
2022-07-25T07:34:16.589Z,62.16
2022-07-25T07:36:43.835Z,59.82
2022-07-25T07:39:11.396Z,60.11
2022-07-25T07:41:38.728Z,59.04
2022-07-25T07:44:05.609Z,58.99
2022-07-25T07:46:32.715Z,60.33
2022-07-25T07:48:59.646Z,57.97
2022-07-25T07:51:26.610Z,57.64
2022-07-25T07:54:12.273Z,56.37
2022-07-25T07:56:39.445Z,54.84
2022-07-25T07:59:06.566Z,54.40
2022-07-25T08:01:34.550Z,52.86
2022-07-25T08:04:01.608Z,53.34
2022-07-25T08:06:28.562Z,50.67
2022-07-25T08:08:55.577Z,49.70
2022-07-25T08:11:22.434Z,50.03
2022-07-25T08:13:49.214Z,48.85
2022-07-25T08:16:16.062Z,49.42
2022-07-25T08:18:43.006Z,49.60
2022-07-25T08:21:10.959Z,49.27
2022-07-25T08:23:38.392Z,48.54
2022-07-25T08:26:06.165Z,48.25
2022-07-25T08:28:33.489Z,47.22
2022-07-25T08:31:00.629Z,46.33
2022-07-25T08:33:27.971Z,45.69
2022-07-25T08:35:58.112Z,43.42
2022-07-25T08:38:26.167Z,41.66
2022-07-25T08:40:55.969Z,41.79
2022-07-25T08:43:22.872Z,41.55
2022-07-25T08:45:51.820Z,40.60
2022-07-25T08:48:27.397Z,39.99
2022-07-25T08:50:56.740Z,40.21
2022-07-25T08:53:33.873Z,38.99
2022-07-25T08:56:09.988Z,38.14
2022-07-25T08:58:40.886Z,38.78
2022-07-25T09:01:07.972Z,37.75
2022-07-25T09:03:36.587Z,37.12
2022-07-25T09:06:21.920Z,36.86
2022-07-25T09:08:58.134Z,35.60
2022-07-25T09:11:45.877Z,36.47
2022-07-25T09:14:14.983Z,36.32
2022-07-25T09:16:50.170Z,36.61
2022-07-25T09:19:25.570Z,35.81
2022-07-25T09:22:04.323Z,34.70
2022-07-25T09:24:36.476Z,34.46
2022-07-25T09:27:15.324Z,34.74
2022-07-25T09:29:42.136Z,34.43
2022-07-25T09:32:38.333Z,33.89
2022-07-25T09:35:14.985Z,34.05
2022-07-25T09:37:41.937Z,34.31
2022-07-25T09:40:17.999Z,34.27
2022-07-25T09:42:54.959Z,33.98
2022-07-25T09:45:21.792Z,32.78
2022-07-25T09:47:58.708Z,32.42
2022-07-25T09:50:35.548Z,33.52
2022-07-25T09:53:06.000Z,34.05
2022-07-25T09:55:32.921Z,33.05
2022-07-25T09:58:32.215Z,32.74
2022-07-25T10:01:06.220Z,32.38
2022-07-25T10:03:53.169Z,33.59
2022-07-25T10:09:21.397Z,34.38
2022-07-25T10:12:04.645Z,35.05
2022-07-25T10:14:33.379Z,35.54
2022-07-25T10:17:03.916Z,34.59
2022-07-25T10:19:52.901Z,33.43
2022-07-25T10:23:00.824Z,32.43
2022-07-25T10:25:31.816Z,32.11
2022-07-25T10:28:15.567Z,33.01
2022-07-25T10:30:45.128Z,32.94
2022-07-25T10:33:18.866Z,34.53
2022-07-25T10:35:46.845Z,35.01
2022-07-25T10:38:13.784Z,33.96
2022-07-25T10:40:51.236Z,31.68
2022-07-25T10:43:30.201Z,31.07
2022-07-25T10:46:00.159Z,30.47
2022-07-25T10:48:33.446Z,31.24
2022-07-25T10:51:07.500Z,32.08
2022-07-25T10:53:35.723Z,32.16
2022-07-25T10:56:06.523Z,30.75
2022-07-25T10:59:18.654Z,30.10
2022-07-25T11:01:53.356Z,28.96
2022-07-25T11:04:20.249Z,28.47
2022-07-25T11:06:48.597Z,28.99
2022-07-25T11:09:27.321Z,29.61
2022-07-25T11:12:01.930Z,28.63
2022-07-25T11:14:33.476Z,28.20
2022-07-25T11:17:22.070Z,27.82
2022-07-25T11:20:11.523Z,27.39
2022-07-25T11:22:41.830Z,27.13
2022-07-25T11:25:18.208Z,26.89
2022-07-25T11:28:00.870Z,26.59
2022-07-25T11:30:30.621Z,26.08
2022-07-25T11:33:01.018Z,26.56
2022-07-25T11:35:30.988Z,26.02
2022-07-25T11:38:01.094Z,26.65
2022-07-25T11:40:28.516Z,26.57
2022-07-25T11:42:59.072Z,27.11
2022-07-25T11:45:33.044Z,27.91
2022-07-25T11:48:07.011Z,27.66
2022-07-25T11:50:36.755Z,27.04
2022-07-25T11:53:08.860Z,26.25
2022-07-25T11:55:40.306Z,26.15
2022-07-25T11:58:08.152Z,27.02
2022-07-25T12:00:49.596Z,27.67
2022-07-25T12:03:20.842Z,27.25
2022-07-25T12:05:49.574Z,26.64
2022-07-25T12:08:19.651Z,26.45
2022-07-25T12:10:50.071Z,26.32
2022-07-25T12:13:25.133Z,26.11
2022-07-25T12:15:52.696Z,26.10
2022-07-25T12:18:19.470Z,26.51
2022-07-25T12:20:46.285Z,26.82
2022-07-25T12:23:14.287Z,27.09
2022-07-25T12:25:46.412Z,27.34
2022-07-25T12:28:13.830Z,27.01
2022-07-25T12:30:42.513Z,26.54
2022-07-25T12:33:09.500Z,26.94
2022-07-25T12:35:37.027Z,26.60
2022-07-25T12:38:04.419Z,26.64
2022-07-25T12:40:31.997Z,26.88
2022-07-25T12:43:00.630Z,27.05
2022-07-25T12:45:28.237Z,27.64
2022-07-25T12:47:56.325Z,27.78
2022-07-25T12:50:25.239Z,27.75
2022-07-25T12:52:52.472Z,27.53
2022-07-25T12:55:22.044Z,27.63
2022-07-25T12:57:49.791Z,27.38
2022-07-25T13:00:19.474Z,26.98
2022-07-25T13:02:48.048Z,26.89
2022-07-25T13:05:15.002Z,26.46
2022-07-25T13:07:41.878Z,26.57
2022-07-25T13:10:09.950Z,26.75
2022-07-25T13:12:36.743Z,27.32
2022-07-25T13:15:04.622Z,27.33
2022-07-25T13:17:32.088Z,27.35
2022-07-25T13:19:59.198Z,27.25
2022-07-25T13:22:26.931Z,27.36
2022-07-25T13:24:53.886Z,27.55
2022-07-25T13:27:22.385Z,27.39
2022-07-25T13:29:55.811Z,27.12
2022-07-25T13:32:22.845Z,27.30
2022-07-25T13:34:50.529Z,27.83
2022-07-25T13:37:23.340Z,28.06
2022-07-25T13:39:50.184Z,27.65
2022-07-25T13:42:17.047Z,27.85
2022-07-25T13:44:46.850Z,27.49
2022-07-25T13:47:17.984Z,27.96
2022-07-25T13:49:48.684Z,28.12
2022-07-25T13:52:15.524Z,27.35
2022-07-25T13:54:44.974Z,27.12
2022-07-25T13:57:28.838Z,27.45
2022-07-25T13:59:57.508Z,27.22
2022-07-25T14:02:27.593Z,27.30
2022-07-25T14:05:03.748Z,26.87
2022-07-25T14:07:36.149Z,27.29
2022-07-25T14:10:09.482Z,27.75
2022-07-25T14:12:39.238Z,27.74
2022-07-25T14:15:17.273Z,28.14
2022-07-25T14:17:45.547Z,28.18
2022-07-25T14:20:15.516Z,28.37
2022-07-25T14:22:46.304Z,28.61
2022-07-25T14:25:20.471Z,28.68
2022-07-25T14:27:47.525Z,28.63
2022-07-25T14:30:20.966Z,28.40
2022-07-25T14:32:47.860Z,28.64
2022-07-25T14:35:17.355Z,28.53
2022-07-25T14:37:44.117Z,28.51
2022-07-25T14:40:12.002Z,28.60
2022-07-25T14:42:39.765Z,28.56
2022-07-25T14:45:11.637Z,28.73
2022-07-25T14:47:43.651Z,28.82
2022-07-25T14:50:16.850Z,28.45
2022-07-25T14:52:43.649Z,28.82
2022-07-25T14:55:13.203Z,29.03
2022-07-25T14:57:44.142Z,29.44
2022-07-25T15:00:11.387Z,29.52
2022-07-25T15:02:38.161Z,29.30
2022-07-25T15:05:05.476Z,29.69
2022-07-25T15:07:32.327Z,29.90
2022-07-25T15:09:59.356Z,30.04
2022-07-25T15:12:26.166Z,30.41
2022-07-25T15:14:53.012Z,30.27
2022-07-25T15:17:19.816Z,30.40
2022-07-25T15:19:46.752Z,30.64
2022-07-25T15:22:13.558Z,30.50
2022-07-25T15:25:14.028Z,30.23
2022-07-25T15:27:27.563Z,30.57
2022-07-25T15:29:54.749Z,30.80
2022-07-25T15:32:21.592Z,31.28
2022-07-25T15:34:48.397Z,30.92
2022-07-25T15:37:15.502Z,31.22
2022-07-25T15:39:43.866Z,31.61
2022-07-25T15:42:10.729Z,31.51
2022-07-25T15:44:37.538Z,31.77
2022-07-25T15:47:06.603Z,31.64
2022-07-25T15:49:33.583Z,31.56
2022-07-25T15:52:00.439Z,31.69
2022-07-25T15:54:29.571Z,31.69
2022-07-25T15:56:56.864Z,31.86
2022-07-25T15:59:24.136Z,32.31
2022-07-25T16:01:50.927Z,32.60
2022-07-25T16:04:18.849Z,32.31
2022-07-25T16:06:45.780Z,32.41
2022-07-25T16:09:14.233Z,32.50
2022-07-25T16:11:41.219Z,32.61
2022-07-25T16:14:09.311Z,33.00
2022-07-25T16:16:36.826Z,33.11
2022-07-25T16:19:03.961Z,33.28
2022-07-25T16:21:30.996Z,33.64
2022-07-25T16:23:57.813Z,33.66
2022-07-25T16:26:24.594Z,33.97
2022-07-25T16:28:54.029Z,34.02
2022-07-25T16:31:25.910Z,34.39
2022-07-25T16:33:52.777Z,34.40
2022-07-25T16:36:19.580Z,34.44
2022-07-25T16:38:48.163Z,34.69
2022-07-25T16:41:15.457Z,34.94
2022-07-25T16:43:42.292Z,35.13
2022-07-25T16:46:09.244Z,35.28
2022-07-25T16:48:37.629Z,35.49
2022-07-25T16:51:04.675Z,35.37
2022-07-25T16:53:35.952Z,35.81
2022-07-25T16:56:03.782Z,35.52
2022-07-25T16:58:30.725Z,35.79
2022-07-25T17:00:57.603Z,36.05
2022-07-25T17:03:24.425Z,36.16
2022-07-25T17:05:53.348Z,36.02
2022-07-25T17:08:20.211Z,36.21
2022-07-25T17:10:47.035Z,36.23
2022-07-25T17:13:13.979Z,36.61
2022-07-25T17:15:42.662Z,36.60
2022-07-25T17:18:09.509Z,36.69
2022-07-25T17:20:36.395Z,36.84
2022-07-25T17:23:04.308Z,37.23
2022-07-25T17:25:31.224Z,37.45
2022-07-25T17:27:58.147Z,37.47
2022-07-25T17:30:25.072Z,37.37
2022-07-25T17:32:52.877Z,37.80
2022-07-25T17:35:20.161Z,37.99
2022-07-25T17:37:47.222Z,38.30
2022-07-25T17:40:14.047Z,38.34
2022-07-25T17:42:45.081Z,38.70
2022-07-25T17:45:13.746Z,39.30
2022-07-25T17:47:42.450Z,39.50
2022-07-25T17:50:10.434Z,39.97
2022-07-25T17:52:37.653Z,40.13
2022-07-25T17:55:04.904Z,40.67
2022-07-25T17:57:32.935Z,41.29
2022-07-25T17:59:59.776Z,41.63
2022-07-25T18:02:26.683Z,42.27
2022-07-25T18:04:53.500Z,42.58
2022-07-25T18:07:20.587Z,43.10
2022-07-25T18:09:47.354Z,43.54
2022-07-25T18:12:14.169Z,43.45
2022-07-25T18:14:41.063Z,43.93
2022-07-25T18:17:07.829Z,44.36
2022-07-25T18:19:34.788Z,44.87
2022-07-25T18:22:01.609Z,44.74
2022-07-25T18:24:29.894Z,44.85
2022-07-25T18:26:58.596Z,45.04
2022-07-25T18:29:26.109Z,45.20
2022-07-25T18:31:52.925Z,45.45
2022-07-25T18:34:19.763Z,45.65
2022-07-25T18:36:46.731Z,45.39
2022-07-25T18:39:13.826Z,45.86
2022-07-25T18:41:40.633Z,45.95
2022-07-25T18:44:07.826Z,46.56
2022-07-25T18:46:35.469Z,46.41
2022-07-25T18:49:02.653Z,46.75
2022-07-25T18:51:29.837Z,46.86
2022-07-25T18:53:56.641Z,47.17
2022-07-25T18:56:23.598Z,47.35
2022-07-25T18:58:50.543Z,47.47
2022-07-25T19:01:17.455Z,47.63
2022-07-25T19:03:44.378Z,48.07
2022-07-25T19:06:11.674Z,48.24
2022-07-25T19:08:39.459Z,48.61
2022-07-25T19:11:06.462Z,48.96
2022-07-25T19:13:50.935Z,49.25
2022-07-25T19:16:18.492Z,49.48
2022-07-25T19:18:45.752Z,49.85
2022-07-25T19:21:13.090Z,50.32
2022-07-25T19:23:39.906Z,50.44
2022-07-25T19:26:06.980Z,51.01
2022-07-25T19:28:35.594Z,51.37
2022-07-25T19:31:03.438Z,51.23
2022-07-25T19:33:36.095Z,50.55
2022-07-25T19:36:03.811Z,49.99
2022-07-25T19:38:30.709Z,49.81
2022-07-25T19:40:57.532Z,50.36
2022-07-25T19:43:24.446Z,50.02
2022-07-25T19:45:51.854Z,50.00
2022-07-25T19:48:23.146Z,49.96
2022-07-25T19:50:51.252Z,50.45
2022-07-25T19:53:18.479Z,50.03
2022-07-25T19:55:45.395Z,50.27
2022-07-25T19:58:12.240Z,50.01
2022-07-25T20:00:39.174Z,50.22
2022-07-25T20:03:06.097Z,49.96
2022-07-25T20:05:34.453Z,50.27
2022-07-25T20:08:01.243Z,50.17
2022-07-25T20:10:28.202Z,49.91
2022-07-25T20:12:58.234Z,50.26
2022-07-25T20:15:28.527Z,50.50
2022-07-25T20:17:56.301Z,50.51
2022-07-25T20:20:23.354Z,50.15
2022-07-25T20:22:51.308Z,50.30
2022-07-25T20:25:18.140Z,50.31
2022-07-25T20:27:45.177Z,50.63
2022-07-25T20:30:12.908Z,51.04
2022-07-25T20:32:39.755Z,51.10
2022-07-25T20:35:07.227Z,51.51
2022-07-25T20:37:34.345Z,51.26
2022-07-25T20:40:03.967Z,51.12
2022-07-25T20:42:31.471Z,51.21
2022-07-25T20:44:58.333Z,51.28
2022-07-25T20:47:25.518Z,51.25
2022-07-25T20:49:52.263Z,51.44
2022-07-25T20:52:19.148Z,51.50
2022-07-25T20:54:45.973Z,51.48
2022-07-25T20:57:13.585Z,52.32
2022-07-25T20:59:40.576Z,52.22
2022-07-25T21:02:07.485Z,52.72
2022-07-25T21:04:34.468Z,53.14
2022-07-25T21:07:01.304Z,52.90
2022-07-25T21:09:32.843Z,54.10
2022-07-25T21:12:00.962Z,54.72
2022-07-25T21:14:28.393Z,54.31
2022-07-25T21:16:55.359Z,54.54
2022-07-25T21:19:22.285Z,54.93
2022-07-25T21:21:49.128Z,55.01
2022-07-25T21:24:16.493Z,55.21
2022-07-25T21:26:43.736Z,55.34
2022-07-25T21:29:11.115Z,55.95
2022-07-25T21:31:38.541Z,55.93
2022-07-25T21:34:05.420Z,55.43
2022-07-25T21:36:32.305Z,55.71
2022-07-25T21:38:59.149Z,55.42
2022-07-25T21:41:26.142Z,55.53
2022-07-25T21:43:52.974Z,55.57
2022-07-25T21:46:19.871Z,55.96
2022-07-25T21:49:05.764Z,56.15
2022-07-25T21:51:40.480Z,56.80
2022-07-25T21:54:08.148Z,57.41
2022-07-25T21:56:35.165Z,57.70
2022-07-25T21:59:02.001Z,57.95
2022-07-25T22:01:28.963Z,57.63
2022-07-25T22:03:55.940Z,57.75
2022-07-25T22:06:22.818Z,57.88
2022-07-25T22:08:49.648Z,58.17
2022-07-25T22:11:38.501Z,57.78
2022-07-25T22:14:03.688Z,58.53
2022-07-25T22:16:30.552Z,58.94
2022-07-25T22:18:57.347Z,58.98
2022-07-25T22:21:24.326Z,59.96
2022-07-25T22:23:51.110Z,59.65
2022-07-25T22:26:19.754Z,59.66
2022-07-25T22:28:47.970Z,60.26
2022-07-25T22:31:15.305Z,60.78
2022-07-25T22:33:42.229Z,61.14
2022-07-25T22:36:09.464Z,60.87
2022-07-25T22:38:36.284Z,61.58
2022-07-25T22:41:03.210Z,60.87
2022-07-25T22:43:57.384Z,61.91
2022-07-25T22:46:17.166Z,61.63
2022-07-25T22:48:44.078Z,62.17
2022-07-25T22:51:11.396Z,62.69
2022-07-25T22:53:38.373Z,63.56
2022-07-25T22:56:05.475Z,63.47
2022-07-25T22:58:32.301Z,63.13
2022-07-25T23:00:59.164Z,62.49
2022-07-25T23:03:26.084Z,63.30
2022-07-25T23:05:58.381Z,64.30
2022-07-25T23:08:25.307Z,63.30
2022-07-25T23:10:52.257Z,63.75
2022-07-25T23:13:19.147Z,65.69
2022-07-25T23:15:49.971Z,67.12
2022-07-25T23:18:18.393Z,66.85
2022-07-25T23:20:45.607Z,66.76
2022-07-25T23:23:13.200Z,67.62
2022-07-25T23:25:40.070Z,68.85
2022-07-25T23:28:06.927Z,68.36
2022-07-25T23:30:39.772Z,67.20
2022-07-25T23:33:07.922Z,66.11
2022-07-25T23:35:35.276Z,65.86
2022-07-25T23:38:03.011Z,67.15
2022-07-25T23:40:30.794Z,67.15
2022-07-25T23:42:57.638Z,68.22
2022-07-25T23:45:27.777Z,68.60
2022-07-25T23:47:56.146Z,69.71
2022-07-25T23:50:23.550Z,70.08
2022-07-25T23:52:50.934Z,69.97
2022-07-25T23:55:18.027Z,69.45
2022-07-25T23:57:44.931Z,69.56
